Time;durP1;ratioP1;P1;durP2;ratioP2;P2;SDS_P1;SDS_P2;PMS_P1;PMS_P2;Temp;Humidity;BMP_temperature;BMP_pressure;BME280_temperature;BME280_humidity;BME280_pressure;Samples;Min_cycle;Max_cycle;Signal;HPM_P1;HPM_P2
2021/09/22 00:02:08;;;;;;;9.68;6.22;;;;;;;;;;5015175;28;20400;-87
2021/09/22 00:04:35;;;;;;;8.88;5.65;;;;;;;;;;5047123;28;20045;-87
2021/09/22 00:07:02;;;;;;;11.98;6.47;;;;;;;;;;5052556;28;20045;-87
2021/09/22 00:09:29;;;;;;;10.05;5.72;;;;;;;;;;5035066;28;20045;-87
2021/09/22 00:11:58;;;;;;;10.85;6.80;;;;;;;;;;5052749;28;20056;-88
2021/09/22 00:14:24;;;;;;;8.63;5.50;;;;;;;;;;5052312;28;20049;-87
2021/09/22 00:16:51;;;;;;;9.57;6.05;;;;;;;;;;5052729;28;20044;-87
2021/09/22 00:19:18;;;;;;;10.20;5.60;;;;;;;;;;5035681;28;20047;-87
2021/09/22 00:21:45;;;;;;;10.73;6.00;;;;;;;;;;5034538;28;20072;-88
2021/09/22 00:24:12;;;;;;;10.00;5.93;;;;;;;;;;5034803;28;20041;-87
2021/09/22 00:26:39;;;;;;;9.45;6.18;;;;;;;;;;5051661;28;20068;-87
2021/09/22 00:29:07;;;;;;;10.30;6.38;;;;;;;;;;5034915;28;20041;-88
2021/09/22 00:31:36;;;;;;;10.13;6.68;;;;;;;;;;5034479;28;20045;-88
2021/09/22 00:34:03;;;;;;;8.32;5.63;;;;;;;;;;5035552;28;20110;-87
2021/09/22 00:36:30;;;;;;;10.20;5.30;;;;;;;;;;5052427;28;20124;-88
2021/09/22 00:38:57;;;;;;;11.95;5.90;;;;;;;;;;5052502;28;20489;-88
2021/09/22 00:41:24;;;;;;;10.35;5.85;;;;;;;;;;5036902;28;20045;-88
2021/09/22 00:43:50;;;;;;;12.05;5.80;;;;;;;;;;5056346;28;20396;-88
2021/09/22 00:46:19;;;;;;;10.88;6.68;;;;;;;;;;5056248;28;20049;-88
2021/09/22 00:48:46;;;;;;;9.77;5.90;;;;;;;;;;5056220;28;20106;-87
2021/09/22 00:51:13;;;;;;;11.90;6.55;;;;;;;;;;5022428;28;20044;-88
2021/09/22 00:53:40;;;;;;;12.48;6.40;;;;;;;;;;5056333;28;20049;-88
2021/09/22 00:56:07;;;;;;;9.32;5.93;;;;;;;;;;5038222;28;20136;-87
2021/09/22 00:58:34;;;;;;;9.30;5.70;;;;;;;;;;5038092;28;20473;-87
2021/09/22 01:01:02;;;;;;;11.15;6.60;;;;;;;;;;5056156;28;20056;-87
2021/09/22 01:03:30;;;;;;;11.13;7.78;;;;;;;;;;5055441;28;20488;-87
2021/09/22 01:05:59;;;;;;;9.70;5.80;;;;;;;;;;5054807;28;20045;-87
2021/09/22 01:08:27;;;;;;;10.43;5.75;;;;;;;;;;5038186;28;20358;-87
2021/09/22 01:10:53;;;;;;;9.05;6.30;;;;;;;;;;5055756;28;20392;-88
2021/09/22 01:13:20;;;;;;;9.80;6.30;;;;;;;;;;5055768;28;20404;-87
2021/09/22 01:15:47;;;;;;;9.32;5.53;;;;;;;;;;5055591;28;20405;-87
2021/09/22 01:18:16;;;;;;;10.93;6.65;;;;;;;;;;5021443;28;20060;-87
2021/09/22 01:20:46;;;;;;;8.82;5.97;;;;;;;;;;5055858;28;20049;-87
2021/09/22 01:23:15;;;;;;;9.50;6.30;;;;;;;;;;5055168;28;20071;-87
2021/09/22 01:25:44;;;;;;;9.40;5.70;;;;;;;;;;5038013;28;20041;-87
2021/09/22 01:28:11;;;;;;;9.35;5.60;;;;;;;;;;5055580;28;20056;-88
2021/09/22 01:30:38;;;;;;;8.32;5.30;;;;;;;;;;5037814;28;20447;-87
2021/09/22 01:33:07;;;;;;;8.98;5.88;;;;;;;;;;5037635;28;20048;-88
2021/09/22 01:35:35;;;;;;;14.30;6.68;;;;;;;;;;5055385;28;20377;-87
2021/09/22 01:38:02;;;;;;;9.85;6.15;;;;;;;;;;5036530;28;20400;-87
2021/09/22 01:40:31;;;;;;;9.75;6.15;;;;;;;;;;5054918;28;20045;-87
2021/09/22 01:42:58;;;;;;;10.57;6.35;;;;;;;;;;5054654;28;20053;-87
2021/09/22 01:45:25;;;;;;;10.07;6.00;;;;;;;;;;5054568;28;20044;-87
2021/09/22 01:47:52;;;;;;;12.38;6.50;;;;;;;;;;5054767;28;20045;-87
2021/09/22 01:50:19;;;;;;;9.20;6.13;;;;;;;;;;5038118;28;20127;-88
2021/09/22 01:52:49;;;;;;;11.55;6.60;;;;;;;;;;5048745;28;20041;-87
2021/09/22 01:55:16;;;;;;;9.82;6.18;;;;;;;;;;5017363;28;20049;-87
2021/09/22 01:57:45;;;;;;;12.13;6.45;;;;;;;;;;5019045;28;20045;-87
2021/09/22 02:00:12;;;;;;;9.32;6.05;;;;;;;;;;5019853;28;20045;-87
2021/09/22 02:02:39;;;;;;;12.73;6.20;;;;;;;;;;5020335;28;20045;-87
2021/09/22 02:05:07;;;;;;;10.50;7.35;;;;;;;;;;5037867;28;20056;-86
2021/09/22 02:07:34;;;;;;;9.32;5.50;;;;;;;;;;5018385;28;20038;-87
2021/09/22 02:10:01;;;;;;;12.13;6.97;;;;;;;;;;5034949;28;20385;-87
2021/09/22 02:12:28;;;;;;;11.38;6.65;;;;;;;;;;5017616;28;20088;-87
2021/09/22 02:14:57;;;;;;;9.90;6.40;;;;;;;;;;5016745;28;20045;-87
2021/09/22 02:17:27;;;;;;;9.65;5.90;;;;;;;;;;5017296;28;20052;-87
2021/09/22 02:19:54;;;;;;;9.95;6.28;;;;;;;;;;5034480;28;20042;-87
2021/09/22 02:22:20;;;;;;;9.23;6.05;;;;;;;;;;5034457;28;20048;-87
2021/09/22 02:24:47;;;;;;;11.18;6.63;;;;;;;;;;5017072;28;20424;-87
2021/09/22 02:27:18;;;;;;;10.27;6.05;;;;;;;;;;5016601;28;20048;-87
2021/09/22 02:29:45;;;;;;;12.48;6.63;;;;;;;;;;5016451;28;20555;-88
2021/09/22 02:32:14;;;;;;;9.90;6.22;;;;;;;;;;5016462;28;20041;-87
2021/09/22 02:34:41;;;;;;;11.23;6.53;;;;;;;;;;5016745;28;20041;-88
2021/09/22 02:37:08;;;;;;;9.18;5.80;;;;;;;;;;5034127;28;20050;-87
2021/09/22 02:39:35;;;;;;;11.38;6.90;;;;;;;;;;5016267;28;20042;-87
2021/09/22 02:42:02;;;;;;;8.23;5.88;;;;;;;;;;5016312;28;20041;-87
2021/09/22 02:44:29;;;;;;;9.82;6.03;;;;;;;;;;5016684;28;20051;-87
2021/09/22 02:46:56;;;;;;;10.25;5.88;;;;;;;;;;5020501;28;20040;-87
2021/09/22 02:49:24;;;;;;;8.43;5.30;;;;;;;;;;5067127;28;20384;-87
2021/09/22 02:51:51;;;;;;;11.00;6.00;;;;;;;;;;5039855;28;20051;-87
2021/09/22 02:54:18;;;;;;;10.73;6.65;;;;;;;;;;5035921;28;20059;-87
2021/09/22 02:56:45;;;;;;;11.60;6.63;;;;;;;;;;5036156;28;20104;-87
2021/09/22 02:59:12;;;;;;;9.80;6.47;;;;;;;;;;5036029;28;20041;-87
2021/09/22 03:01:38;;;;;;;9.65;6.03;;;;;;;;;;5054092;28;20049;-87
2021/09/22 03:04:05;;;;;;;9.07;5.72;;;;;;;;;;5052787;28;20040;-87
2021/09/22 03:06:33;;;;;;;10.65;6.22;;;;;;;;;;5036092;28;20439;-87
2021/09/22 03:09:00;;;;;;;8.88;6.15;;;;;;;;;;5035977;28;20393;-87
2021/09/22 03:11:27;;;;;;;9.80;5.53;;;;;;;;;;5003674;28;20056;-87
2021/09/22 03:13:54;;;;;;;12.57;7.43;;;;;;;;;;5035951;28;20477;-87
2021/09/22 03:16:21;;;;;;;9.70;6.32;;;;;;;;;;5073025;28;20139;-88
2021/09/22 03:18:48;;;;;;;11.43;6.88;;;;;;;;;;5055547;28;20140;-88
2021/09/22 03:21:15;;;;;;;12.45;6.45;;;;;;;;;;5055840;28;20448;-87
2021/09/22 03:23:44;;;;;;;13.10;7.10;;;;;;;;;;5039752;28;20083;-87
2021/09/22 03:26:11;;;;;;;15.75;6.28;;;;;;;;;;5035868;28;20476;-87
2021/09/22 03:28:37;;;;;;;12.02;7.00;;;;;;;;;;5035490;28;20052;-87
2021/09/22 03:31:04;;;;;;;11.10;5.90;;;;;;;;;;5035625;28;20542;-87
2021/09/22 03:33:31;;;;;;;9.48;5.25;;;;;;;;;;5051946;28;20055;-87
2021/09/22 03:35:58;;;;;;;9.73;6.00;;;;;;;;;;5035230;28;20400;-87
2021/09/22 03:38:25;;;;;;;11.68;6.25;;;;;;;;;;5053407;28;20051;-87
2021/09/22 03:40:53;;;;;;;8.80;5.90;;;;;;;;;;5052978;28;20041;-87
2021/09/22 03:43:20;;;;;;;10.30;5.95;;;;;;;;;;5018948;28;20463;-87
2021/09/22 03:45:47;;;;;;;9.57;6.05;;;;;;;;;;5053189;28;20051;-87
2021/09/22 03:48:14;;;;;;;11.80;6.47;;;;;;;;;;5053468;28;20048;-87
2021/09/22 03:50:40;;;;;;;9.55;5.47;;;;;;;;;;5053841;28;20412;-88
2021/09/22 03:53:07;;;;;;;10.55;6.13;;;;;;;;;;5015894;28;20049;-88
2021/09/22 03:55:34;;;;;;;10.32;6.03;;;;;;;;;;5051697;28;20494;-87
2021/09/22 03:58:02;;;;;;;10.75;6.10;;;;;;;;;;5035723;28;20047;-88
2021/09/22 04:00:29;;;;;;;8.60;5.45;;;;;;;;;;5035093;28;20041;-88
2021/09/22 04:02:56;;;;;;;10.00;6.53;;;;;;;;;;5014982;28;20041;-88
2021/09/22 04:05:24;;;;;;;9.65;5.85;;;;;;;;;;5047668;28;20069;-89
2021/09/22 04:07:51;;;;;;;10.50;5.63;;;;;;;;;;5024540;28;20045;-89
2021/09/22 04:10:18;;;;;;;10.75;6.30;;;;;;;;;;5048138;28;20040;-88
2021/09/22 04:12:45;;;;;;;9.82;6.10;;;;;;;;;;5031637;28;20037;-90
2021/09/22 04:15:13;;;;;;;11.38;6.72;;;;;;;;;;5015998;28;20061;-89
2021/09/22 04:17:40;;;;;;;12.20;7.00;;;;;;;;;;5056345;28;20135;-89
2021/09/22 04:20:08;;;;;;;9.93;5.40;;;;;;;;;;5039109;28;20079;-89
2021/09/22 04:22:36;;;;;;;11.95;6.80;;;;;;;;;;5050526;28;20114;-88
2021/09/22 04:25:05;;;;;;;10.63;6.63;;;;;;;;;;5036734;28;20466;-88
2021/09/22 04:27:32;;;;;;;11.52;6.82;;;;;;;;;;5035258;28;20038;-88
2021/09/22 04:29:59;;;;;;;10.88;6.88;;;;;;;;;;5002577;28;20046;-88
2021/09/22 04:32:28;;;;;;;11.10;6.28;;;;;;;;;;5018975;28;20614;-88
2021/09/22 04:34:55;;;;;;;11.88;6.35;;;;;;;;;;5003101;28;20065;-88
2021/09/22 04:37:21;;;;;;;11.43;6.72;;;;;;;;;;5018999;28;20041;-88
2021/09/22 04:39:48;;;;;;;11.38;6.25;;;;;;;;;;5018543;28;20061;-88
2021/09/22 04:42:17;;;;;;;11.27;6.68;;;;;;;;;;5002414;28;20055;-87
2021/09/22 04:44:46;;;;;;;11.05;6.10;;;;;;;;;;5019046;28;20045;-88
2021/09/22 04:47:17;;;;;;;12.13;7.03;;;;;;;;;;5018584;28;20056;-87
2021/09/22 04:49:45;;;;;;;10.15;6.32;;;;;;;;;;5018925;28;20473;-87
2021/09/22 04:52:12;;;;;;;9.52;6.00;;;;;;;;;;5036696;28;20054;-88
2021/09/22 04:54:41;;;;;;;9.93;6.43;;;;;;;;;;5056222;28;20077;-87
2021/09/22 04:57:08;;;;;;;12.98;6.30;;;;;;;;;;5003264;28;20053;-87
2021/09/22 04:59:38;;;;;;;11.18;6.78;;;;;;;;;;5055496;28;20043;-88
2021/09/22 05:02:05;;;;;;;12.52;7.90;;;;;;;;;;5032358;28;20509;-87
2021/09/22 05:04:32;;;;;;;11.45;6.28;;;;;;;;;;5062266;28;20058;-87
2021/09/22 05:07:00;;;;;;;15.82;6.95;;;;;;;;;;5032590;28;20037;-87
2021/09/22 05:09:27;;;;;;;10.85;6.82;;;;;;;;;;5056588;28;20045;-87
2021/09/22 05:11:55;;;;;;;10.77;6.57;;;;;;;;;;5006156;28;20058;-87
2021/09/22 05:14:22;;;;;;;9.93;6.03;;;;;;;;;;5039098;28;20037;-87
2021/09/22 05:16:52;;;;;;;11.85;6.55;;;;;;;;;;5044298;28;20524;-87
2021/09/22 05:19:20;;;;;;;10.48;6.47;;;;;;;;;;5058532;28;20040;-88
2021/09/22 05:21:46;;;;;;;11.25;6.30;;;;;;;;;;5022885;28;20076;-88
2021/09/22 05:24:15;;;;;;;12.60;7.15;;;;;;;;;;5036310;28;20474;-88
2021/09/22 05:26:42;;;;;;;10.35;5.95;;;;;;;;;;5052851;28;20421;-88
2021/09/22 05:29:09;;;;;;;11.85;7.28;;;;;;;;;;5025862;28;20046;-89
2021/09/22 05:31:36;;;;;;;10.57;6.45;;;;;;;;;;4994875;28;20043;-89
2021/09/22 05:34:03;;;;;;;10.95;6.40;;;;;;;;;;5039987;28;20095;-89
2021/09/22 05:36:30;;;;;;;9.80;5.35;;;;;;;;;;5052997;28;20057;-89
2021/09/22 05:38:56;;;;;;;15.48;6.95;;;;;;;;;;5027415;28;20048;-89
2021/09/22 05:41:25;;;;;;;11.13;6.70;;;;;;;;;;5030188;28;20037;-89
2021/09/22 05:43:52;;;;;;;11.82;6.30;;;;;;;;;;5037277;28;20064;-89
2021/09/22 05:46:19;;;;;;;14.18;6.38;;;;;;;;;;5035364;28;20124;-88
2021/09/22 05:49:00;;;;;;;10.32;6.38;;;;;;;;;;5057189;28;20108;-89
2021/09/22 05:51:27;;;;;;;12.43;6.97;;;;;;;;;;5019497;28;20044;-89
2021/09/22 05:53:54;;;;;;;10.90;5.97;;;;;;;;;;5001566;28;20045;-89
2021/09/22 05:56:21;;;;;;;10.63;6.70;;;;;;;;;;5033717;28;20474;-89
2021/09/22 05:58:49;;;;;;;11.05;6.72;;;;;;;;;;5000531;28;20049;-88
2021/09/22 06:01:16;;;;;;;12.02;7.15;;;;;;;;;;5035262;28;20052;-89
2021/09/22 06:03:43;;;;;;;12.45;6.85;;;;;;;;;;5017204;28;20053;-89
2021/09/22 06:06:10;;;;;;;11.48;6.43;;;;;;;;;;5035292;28;20073;-88
2021/09/22 06:08:37;;;;;;;11.98;6.68;;;;;;;;;;5034714;28;20047;-89
2021/09/22 06:11:04;;;;;;;13.00;7.47;;;;;;;;;;5018010;28;20049;-89
2021/09/22 06:13:33;;;;;;;12.68;6.75;;;;;;;;;;5034678;28;20057;-89
2021/09/22 06:16:06;;;;;;;14.90;7.28;;;;;;;;;;5018068;28;20099;-89
2021/09/22 06:18:35;;;;;;;11.85;6.50;;;;;;;;;;5006743;28;20045;-89
2021/09/22 06:21:04;;;;;;;10.35;6.40;;;;;;;;;;5018241;28;20140;-89
2021/09/22 06:23:32;;;;;;;13.38;6.65;;;;;;;;;;5018128;28;20136;-89
2021/09/22 06:25:59;;;;;;;9.57;6.10;;;;;;;;;;5034431;28;20057;-89
2021/09/22 06:28:27;;;;;;;11.25;7.05;;;;;;;;;;5034452;28;20548;-86
2021/09/22 06:30:53;;;;;;;11.77;7.15;;;;;;;;;;5022519;28;20425;-89
2021/09/22 06:33:22;;;;;;;12.85;7.28;;;;;;;;;;5019094;28;20674;-90
2021/09/22 06:35:49;;;;;;;12.30;7.53;;;;;;;;;;5035110;28;20648;-87
2021/09/22 06:38:16;;;;;;;12.60;6.95;;;;;;;;;;5047587;28;20045;-87
2021/09/22 06:40:43;;;;;;;12.50;7.75;;;;;;;;;;5034768;28;20133;-87
2021/09/22 06:43:09;;;;;;;12.20;7.57;;;;;;;;;;5019927;28;20132;-87
2021/09/22 06:45:36;;;;;;;12.65;7.18;;;;;;;;;;5030920;28;20044;-87
2021/09/22 06:48:04;;;;;;;14.65;7.85;;;;;;;;;;5055108;28;20506;-87
2021/09/22 06:50:36;;;;;;;15.70;9.15;;;;;;;;;;5036610;28;20037;-87
2021/09/22 06:53:03;;;;;;;12.00;7.35;;;;;;;;;;5038027;28;20100;-87
2021/09/22 06:55:29;;;;;;;11.15;7.18;;;;;;;;;;5057465;28;20053;-87
2021/09/22 06:57:56;;;;;;;13.32;7.55;;;;;;;;;;5053842;28;20123;-87
2021/09/22 07:00:23;;;;;;;12.02;7.28;;;;;;;;;;5055178;28;20071;-88
2021/09/22 07:02:50;;;;;;;11.57;8.27;;;;;;;;;;5055299;28;20460;-87
2021/09/22 07:05:17;;;;;;;13.98;7.75;;;;;;;;;;5036220;28;20366;-87
2021/09/22 07:07:52;;;;;;;12.95;8.02;;;;;;;;;;5032508;28;20049;-87
2021/09/22 07:10:19;;;;;;;13.27;7.90;;;;;;;;;;5054341;28;20048;-88
2021/09/22 07:12:47;;;;;;;12.23;7.32;;;;;;;;;;5036396;28;20404;-87
2021/09/22 07:15:14;;;;;;;12.48;8.45;;;;;;;;;;5036939;28;20393;-88
2021/09/22 07:17:41;;;;;;;13.70;8.68;;;;;;;;;;5036817;28;20543;-88
2021/09/22 07:20:09;;;;;;;12.77;8.18;;;;;;;;;;5054970;28;20055;-88
2021/09/22 07:22:36;;;;;;;13.05;7.72;;;;;;;;;;5052970;28;20075;-88
2021/09/22 07:25:05;;;;;;;11.25;7.28;;;;;;;;;;5036719;28;20047;-88
2021/09/22 07:27:34;;;;;;;13.60;8.05;;;;;;;;;;5036620;28;20045;-88
2021/09/22 07:30:00;;;;;;;12.73;7.18;;;;;;;;;;5054267;28;20045;-88
2021/09/22 07:32:27;;;;;;;12.45;7.97;;;;;;;;;;5036782;28;20516;-88
2021/09/22 07:34:54;;;;;;;13.13;8.52;;;;;;;;;;5053374;28;20041;-88
2021/09/22 07:37:22;;;;;;;13.57;9.73;;;;;;;;;;5035547;28;20045;-88
2021/09/22 07:39:54;;;;;;;12.50;8.23;;;;;;;;;;5019448;28;20045;-87
2021/09/22 07:42:22;;;;;;;13.65;8.82;;;;;;;;;;5033481;28;20040;-88
2021/09/22 07:44:53;;;;;;;15.38;9.85;;;;;;;;;;5054344;28;20132;-88
2021/09/22 07:47:20;;;;;;;13.35;8.73;;;;;;;;;;5035580;28;20049;-87
2021/09/22 07:49:47;;;;;;;15.00;9.85;;;;;;;;;;5033502;28;20041;-88
2021/09/22 07:52:15;;;;;;;14.95;9.15;;;;;;;;;;5002291;28;20114;-87
2021/09/22 07:54:42;;;;;;;15.15;9.38;;;;;;;;;;5052630;28;20370;-87
2021/09/22 07:57:10;;;;;;;13.15;8.70;;;;;;;;;;4999855;28;20080;-87
2021/09/22 07:59:38;;;;;;;16.75;9.68;;;;;;;;;;5034388;28;20068;-87
2021/09/22 08:02:06;;;;;;;13.93;9.70;;;;;;;;;;5032873;28;20041;-87
2021/09/22 08:04:33;;;;;;;14.70;10.25;;;;;;;;;;5034167;28;20381;-87
2021/09/22 08:07:01;;;;;;;15.45;10.85;;;;;;;;;;5034034;28;20051;-87
2021/09/22 08:09:28;;;;;;;17.13;12.05;;;;;;;;;;5033802;28;20095;-88
2021/09/22 08:11:55;;;;;;;16.52;10.38;;;;;;;;;;5032698;28;20075;-88
2021/09/22 08:14:29;;;;;;;16.77;10.82;;;;;;;;;;5033056;28;20139;-88
2021/09/22 08:17:20;;;;;;;17.55;11.02;;;;;;;;;;5033042;28;20060;-88
2021/09/22 08:19:47;;;;;;;15.93;11.15;;;;;;;;;;5015294;28;20505;-88
2021/09/22 08:22:14;;;;;;;16.58;11.40;;;;;;;;;;5015503;28;20052;-88
2021/09/22 08:24:41;;;;;;;13.98;10.10;;;;;;;;;;5014708;28;20500;-88
2021/09/22 08:27:08;;;;;;;15.02;10.93;;;;;;;;;;5036713;28;20041;-88
2021/09/22 08:29:35;;;;;;;13.45;10.25;;;;;;;;;;4998827;28;20072;-88
2021/09/22 08:32:02;;;;;;;15.32;10.45;;;;;;;;;;5014542;28;20052;-88
2021/09/22 08:34:31;;;;;;;15.80;10.63;;;;;;;;;;5015075;28;20042;-88
2021/09/22 08:36:58;;;;;;;14.90;10.75;;;;;;;;;;5015191;28;20061;-88
2021/09/22 08:39:29;;;;;;;13.18;9.25;;;;;;;;;;5032515;28;20044;-88
2021/09/22 08:41:56;;;;;;;19.30;10.55;;;;;;;;;;5032240;28;20454;-88
2021/09/22 08:44:23;;;;;;;14.82;10.93;;;;;;;;;;5032723;28;20470;-88
2021/09/22 08:46:51;;;;;;;14.15;9.80;;;;;;;;;;5032527;28;20041;-88
2021/09/22 08:49:18;;;;;;;17.05;10.73;;;;;;;;;;5019362;28;20048;-88
2021/09/22 08:51:47;;;;;;;14.60;10.68;;;;;;;;;;5034798;28;20478;-88
2021/09/22 08:54:14;;;;;;;12.32;8.90;;;;;;;;;;5052293;28;20389;-88
2021/09/22 08:56:43;;;;;;;13.02;7.10;;;;;;;;;;5017910;28;20396;-88
2021/09/22 08:59:10;;;;;;;10.95;7.78;;;;;;;;;;5051779;28;20148;-88
2021/09/22 09:01:37;;;;;;;10.10;7.85;;;;;;;;;;5051880;28;20122;-88
2021/09/22 09:04:14;;;;;;;8.52;7.00;;;;;;;;;;5038279;28;20362;-88
2021/09/22 09:07:00;;;;;;;8.57;6.55;;;;;;;;;;5038023;28;20053;-88
2021/09/22 09:09:32;;;;;;;7.85;6.13;;;;;;;;;;5056086;28;20044;-87
2021/09/22 09:11:59;;;;;;;6.72;5.30;;;;;;;;;;5055762;28;20431;-88
2021/09/22 09:14:28;;;;;;;10.40;6.28;;;;;;;;;;5055469;28;20041;-88
2021/09/22 09:16:58;;;;;;;8.52;5.78;;;;;;;;;;5021760;28;20099;-88
2021/09/22 09:19:25;;;;;;;8.02;5.68;;;;;;;;;;5055395;28;20072;-88
2021/09/22 09:21:59;;;;;;;8.85;6.25;;;;;;;;;;5037202;28;20045;-87
2021/09/22 09:24:30;;;;;;;8.52;5.70;;;;;;;;;;5037591;28;20052;-88
2021/09/22 09:26:57;;;;;;;7.68;5.90;;;;;;;;;;5037721;28;20044;-87
2021/09/22 09:29:30;;;;;;;7.63;5.80;;;;;;;;;;5037713;28;20049;-89
2021/09/22 09:32:14;;;;;;;9.27;5.25;;;;;;;;;;5055075;28;20048;-87
2021/09/22 09:34:57;;;;;;;6.55;4.60;;;;;;;;;;5036295;28;20144;-89
2021/09/22 09:37:35;;;;;;;6.07;4.47;;;;;;;;;;5021380;28;20051;-88
2021/09/22 09:40:20;;;;;;;6.43;5.03;;;;;;;;;;5037711;28;20381;-88
2021/09/22 09:42:49;;;;;;;7.18;5.05;;;;;;;;;;5054862;28;20045;-89
2021/09/22 09:45:19;;;;;;;6.90;4.85;;;;;;;;;;5054865;28;20457;-90
2021/09/22 09:48:03;;;;;;;7.72;5.15;;;;;;;;;;5055387;28;20045;-89
2021/09/22 09:50:30;;;;;;;5.95;4.43;;;;;;;;;;5055074;28;20477;-90
2021/09/22 09:53:01;;;;;;;6.45;4.97;;;;;;;;;;5055304;28;20394;-89
2021/09/22 09:55:53;;;;;;;8.65;4.90;;;;;;;;;;5021462;28;20098;-89
2021/09/22 09:58:20;;;;;;;5.07;4.05;;;;;;;;;;5055242;28;20045;-90
2021/09/22 10:00:49;;;;;;;6.20;3.70;;;;;;;;;;5055310;28;20048;-89
2021/09/22 10:03:17;;;;;;;5.55;3.47;;;;;;;;;;5054619;28;20564;-89
2021/09/22 10:05:44;;;;;;;5.95;4.25;;;;;;;;;;5054173;28;20093;-89
2021/09/22 10:08:13;;;;;;;5.82;3.95;;;;;;;;;;5037150;28;20053;-90
2021/09/22 10:10:42;;;;;;;7.97;4.90;;;;;;;;;;5054263;28;20132;-90
2021/09/22 10:13:22;;;;;;;6.15;4.60;;;;;;;;;;5036246;28;20071;-89
2021/09/22 10:15:50;;;;;;;7.28;5.35;;;;;;;;;;5054816;28;20045;-89
2021/09/22 10:18:18;;;;;;;9.35;5.35;;;;;;;;;;5054317;28;20152;-89
2021/09/22 10:20:47;;;;;;;5.93;4.68;;;;;;;;;;5036306;28;20060;-90
2021/09/22 10:23:16;;;;;;;6.18;4.82;;;;;;;;;;5054273;28;20056;-89
2021/09/22 10:25:46;;;;;;;6.95;5.35;;;;;;;;;;5037146;28;20055;-89
2021/09/22 10:28:13;;;;;;;8.48;5.57;;;;;;;;;;5054239;28;20045;-90
2021/09/22 10:30:57;;;;;;;8.85;5.70;;;;;;;;;;5059236;28;20040;-90
2021/09/22 10:33:25;;;;;;;7.43;5.38;;;;;;;;;;5034570;28;20628;-89
2021/09/22 10:35:56;;;;;;;7.43;4.90;;;;;;;;;;5053836;28;20044;-89
2021/09/22 10:38:43;;;;;;;8.20;5.25;;;;;;;;;;5054221;28;20045;-90
2021/09/22 10:41:10;;;;;;;6.47;5.05;;;;;;;;;;5053690;28;20624;-89
2021/09/22 10:43:39;;;;;;;5.72;4.75;;;;;;;;;;5053295;28;20049;-89
2021/09/22 10:46:17;;;;;;;6.80;4.60;;;;;;;;;;5053599;28;20056;-88
2021/09/22 10:49:02;;;;;;;5.13;4.20;;;;;;;;;;5036381;28;20098;-88
2021/09/22 10:51:31;;;;;;;6.03;4.68;;;;;;;;;;5053459;28;20037;-87
2021/09/22 10:54:08;;;;;;;6.65;4.90;;;;;;;;;;5053787;28;20048;-88
2021/09/22 10:56:46;;;;;;;7.97;5.38;;;;;;;;;;5035894;28;20051;-89
2021/09/22 10:59:30;;;;;;;7.47;4.97;;;;;;;;;;5053312;28;20052;-88
2021/09/22 11:01:57;;;;;;;7.18;4.90;;;;;;;;;;5053752;28;20075;-89
2021/09/22 11:04:32;;;;;;;6.05;4.80;;;;;;;;;;5016378;28;20132;-89
2021/09/22 11:07:00;;;;;;;5.85;4.80;;;;;;;;;;5033602;28;20514;-91
2021/09/22 11:09:35;;;;;;;5.80;4.28;;;;;;;;;;5033277;28;20128;-89
2021/09/22 11:12:28;;;;;;;9.57;4.18;;;;;;;;;;5015762;28;20049;-89
2021/09/22 11:15:08;;;;;;;5.82;3.78;;;;;;;;;;5010971;28;20049;-90
2021/09/22 11:18:10;;;;;;;5.88;3.85;;;;;;;;;;5015672;28;20049;-90
2021/09/22 11:20:37;;;;;;;4.50;3.30;;;;;;;;;;5011662;28;20049;-89
2021/09/22 11:23:07;;;;;;;5.10;3.10;;;;;;;;;;5033048;28;20131;-89
2021/09/22 11:25:35;;;;;;;4.20;3.10;;;;;;;;;;5016030;28;20492;-90
2021/09/22 11:28:04;;;;;;;7.35;3.28;;;;;;;;;;5016161;28;20398;-88
2021/09/22 11:30:31;;;;;;;5.55;3.10;;;;;;;;;;5032799;28;20401;-89
2021/09/22 11:32:58;;;;;;;4.78;3.28;;;;;;;;;;5033005;28;20076;-89
2021/09/22 11:35:30;;;;;;;5.70;3.53;;;;;;;;;;5015237;28;20606;-89
2021/09/22 11:38:00;;;;;;;4.75;3.13;;;;;;;;;;5033878;28;20454;-90
2021/09/22 11:40:30;;;;;;;4.18;3.28;;;;;;;;;;5033045;28;20049;-88
2021/09/22 11:43:01;;;;;;;5.03;3.45;;;;;;;;;;5017970;28;20057;-89
2021/09/22 11:45:35;;;;;;;4.55;3.03;;;;;;;;;;5020753;28;20129;-89
2021/09/22 11:48:02;;;;;;;4.00;2.75;;;;;;;;;;5044740;28;20413;-88
2021/09/22 11:50:34;;;;;;;17.92;3.85;;;;;;;;;;5036160;28;20123;-89
2021/09/22 11:53:01;;;;;;;7.63;3.30;;;;;;;;;;5052905;28;20041;-89
2021/09/22 11:55:28;;;;;;;4.28;2.90;;;;;;;;;;5035455;28;20076;-89
2021/09/22 11:57:55;;;;;;;5.35;3.03;;;;;;;;;;5052543;28;20041;-89
2021/09/22 12:00:37;;;;;;;6.45;3.05;;;;;;;;;;5009296;28;20053;-90
2021/09/22 12:03:06;;;;;;;3.70;2.60;;;;;;;;;;5032794;28;20048;-89
2021/09/22 12:05:33;;;;;;;5.13;2.92;;;;;;;;;;5019469;28;20052;-89
2021/09/22 12:07:59;;;;;;;4.30;3.10;;;;;;;;;;5027714;28;20041;-89
2021/09/22 12:10:32;;;;;;;5.22;3.00;;;;;;;;;;5045034;28;20120;-90
2021/09/22 12:13:06;;;;;;;4.20;2.67;;;;;;;;;;5046137;28;20109;-89
2021/09/22 12:15:37;;;;;;;4.57;2.70;;;;;;;;;;5037751;28;20091;-89
2021/09/22 12:18:04;;;;;;;4.00;2.83;;;;;;;;;;5016053;28;20041;-88
2021/09/22 12:20:36;;;;;;;5.72;3.53;;;;;;;;;;5053456;28;20049;-89
2021/09/22 12:23:05;;;;;;;6.55;3.00;;;;;;;;;;5053694;28;20048;-89
2021/09/22 12:25:33;;;;;;;4.38;3.10;;;;;;;;;;5051798;28;20405;-89
2021/09/22 12:28:01;;;;;;;4.53;3.03;;;;;;;;;;5035324;28;20049;-89
2021/09/22 12:30:30;;;;;;;4.35;3.20;;;;;;;;;;5034833;28;20044;-89
2021/09/22 12:33:03;;;;;;;5.00;2.92;;;;;;;;;;5039702;28;20041;-88
2021/09/22 12:35:32;;;;;;;5.78;3.22;;;;;;;;;;5032786;28;20456;-89
2021/09/22 12:38:01;;;;;;;7.10;3.65;;;;;;;;;;5034580;28;20049;-88
2021/09/22 12:40:30;;;;;;;5.53;2.72;;;;;;;;;;5019050;28;20048;-88
2021/09/22 12:42:58;;;;;;;4.05;2.80;;;;;;;;;;5018515;28;20087;-90
2021/09/22 12:45:27;;;;;;;4.40;2.95;;;;;;;;;;5035977;28;20466;-89
2021/09/22 12:47:56;;;;;;;5.18;3.15;;;;;;;;;;5018028;28;20045;-90
2021/09/22 12:50:32;;;;;;;5.93;3.30;;;;;;;;;;5018485;28;20448;-90
2021/09/22 12:53:04;;;;;;;;;;;;;;;;;;5036323;28;20092;-89
2021/09/22 12:55:31;;;;;;;4.93;3.50;;;;;;;;;;5051701;28;19952;-89
2021/09/22 12:58:00;;;;;;;4.43;3.25;;;;;;;;;;5017869;28;20068;-89
2021/09/22 13:00:32;;;;;;;5.65;3.50;;;;;;;;;;5035297;28;20045;-88
2021/09/22 13:03:13;;;;;;;4.53;2.97;;;;;;;;;;5017929;28;20099;-90
2021/09/22 13:05:44;;;;;;;4.57;2.85;;;;;;;;;;5018308;28;20492;-89
2021/09/22 13:08:12;;;;;;;5.68;3.20;;;;;;;;;;5035650;28;20041;-89
2021/09/22 13:10:55;;;;;;;3.85;2.72;;;;;;;;;;5035739;28;20049;-89
2021/09/22 13:13:22;;;;;;;4.78;2.90;;;;;;;;;;5035787;28;20048;-88
2021/09/22 13:15:51;;;;;;;4.30;3.03;;;;;;;;;;5018044;28;20365;-89
2021/09/22 13:18:18;;;;;;;3.40;2.58;;;;;;;;;;5018119;28;20132;-90
2021/09/22 13:20:47;;;;;;;4.85;2.70;;;;;;;;;;5031888;28;20053;-90
2021/09/22 13:23:21;;;;;;;4.25;2.65;;;;;;;;;;5007644;28;20470;-90
2021/09/22 13:25:48;;;;;;;5.43;2.70;;;;;;;;;;5036004;28;20048;-90
2021/09/22 13:28:15;;;;;;;5.70;3.25;;;;;;;;;;5035686;28;20041;-90
2021/09/22 13:30:54;;;;;;;10.43;2.75;;;;;;;;;;5017870;28;20196;-89
2021/09/22 13:33:21;;;;;;;3.85;2.40;;;;;;;;;;5002598;28;20095;-88
2021/09/22 13:35:49;;;;;;;4.90;2.65;;;;;;;;;;5025874;28;20052;-89
2021/09/22 13:38:16;;;;;;;4.30;2.60;;;;;;;;;;5041685;28;20042;-88
2021/09/22 13:40:42;;;;;;;5.18;2.85;;;;;;;;;;5017939;28;20057;-89
2021/09/22 13:43:12;;;;;;;4.35;2.78;;;;;;;;;;5017737;28;20063;-89
2021/09/22 13:45:39;;;;;;;4.93;2.60;;;;;;;;;;5018042;28;20049;-90
2021/09/22 13:48:06;;;;;;;3.95;2.85;;;;;;;;;;5033937;28;20040;-88
2021/09/22 13:50:33;;;;;;;4.70;2.70;;;;;;;;;;5036767;28;20049;-90
2021/09/22 13:53:02;;;;;;;5.43;2.70;;;;;;;;;;5030307;28;20125;-89
2021/09/22 13:55:29;;;;;;;4.95;2.88;;;;;;;;;;5017454;28;20088;-90
2021/09/22 13:57:55;;;;;;;4.20;2.78;;;;;;;;;;5035002;28;20141;-89
2021/09/22 14:00:22;;;;;;;5.45;2.80;;;;;;;;;;5034753;28;20046;-90
2021/09/22 14:02:50;;;;;;;4.40;2.75;;;;;;;;;;5016297;28;20056;-89
2021/09/22 14:05:17;;;;;;;4.68;2.80;;;;;;;;;;5033392;28;20452;-89
2021/09/22 14:07:44;;;;;;;3.33;2.38;;;;;;;;;;5032997;28;20052;-89
2021/09/22 14:10:13;;;;;;;3.65;2.33;;;;;;;;;;5034224;28;20053;-89
2021/09/22 14:12:40;;;;;;;3.45;2.30;;;;;;;;;;5001193;28;20118;-88
2021/09/22 14:15:07;;;;;;;3.90;2.55;;;;;;;;;;5017143;28;20042;-88
2021/09/22 14:17:34;;;;;;;4.20;2.33;;;;;;;;;;5016826;28;20045;-89
2021/09/22 14:20:01;;;;;;;3.83;1.80;;;;;;;;;;5017276;28;20056;-88
2021/09/22 14:22:28;;;;;;;3.17;1.90;;;;;;;;;;5016808;28;20563;-89
2021/09/22 14:24:59;;;;;;;3.35;1.83;;;;;;;;;;5034268;28;20489;-88
2021/09/22 14:27:28;;;;;;;3.25;2.08;;;;;;;;;;5016459;28;20045;-88
2021/09/22 14:29:55;;;;;;;3.55;2.15;;;;;;;;;;5034456;28;20045;-89
2021/09/22 14:32:21;;;;;;;3.60;1.50;;;;;;;;;;5016995;28;20041;-90
2021/09/22 14:34:48;;;;;;;5.93;1.92;;;;;;;;;;5016547;28;20053;-88
2021/09/22 14:37:15;;;;;;;3.90;2.03;;;;;;;;;;5033778;28;20049;-86
2021/09/22 14:39:41;;;;;;;4.20;1.65;;;;;;;;;;5034677;28;20554;-88
2021/09/22 14:42:08;;;;;;;3.47;1.75;;;;;;;;;;5016560;28;20045;-87
2021/09/22 14:44:37;;;;;;;5.13;2.72;;;;;;;;;;5015709;28;20042;-88
2021/09/22 14:47:04;;;;;;;4.40;2.28;;;;;;;;;;5037036;28;20045;-88